Time;durP1;ratioP1;P1;durP2;ratioP2;P2;SDS_P1;SDS_P2;PMS_P1;PMS_P2;Temp;Humidity;BMP_temperature;BMP_pressure;BME280_temperature;BME280_humidity;BME280_pressure;Samples;Min_cycle;Max_cycle;Signal;HPM_P1;HPM_P2
2023/08/11 00:02:23;;;;;;;15.80;11.20;;;14.30;1.00;;;;;;4964528;29;20550;-91
2023/08/11 00:04:51;;;;;;;17.13;11.60;;;;;;;;;;4969402;29;20831;-92
2023/08/11 00:07:18;;;;;;;21.93;10.50;;;;;;;;;;4964692;29;20516;-91
2023/08/11 00:09:45;;;;;;;16.40;11.23;;;;;;;;;;4964165;29;20963;-91
2023/08/11 00:12:13;;;;;;;14.00;10.40;;;;;;;;;;4965910;29;20918;-90
2023/08/11 00:14:40;;;;;;;11.83;9.70;;;;;;;;;;4964870;29;20478;-90
2023/08/11 00:17:08;;;;;;;13.43;9.87;;;;;;;;;;4969826;28;20450;-90
2023/08/11 00:19:36;;;;;;;16.83;9.80;;;;;;;;;;4975188;28;20462;-90
2023/08/11 00:22:05;;;;;;;16.47;10.00;;;14.20;99.90;;;;;;4970148;29;20449;-90
2023/08/11 00:24:33;;;;;;;14.83;9.90;;;;;;;;;;4968418;29;20506;-90
2023/08/11 00:27:02;;;;;;;19.23;10.53;;;14.30;1.00;;;;;;4965810;29;20537;-90
2023/08/11 00:29:31;;;;;;;14.10;10.00;;;14.40;99.90;;;;;;4967990;29;20486;-91
2023/08/11 00:31:58;;;;;;;10.20;9.13;;;14.40;99.90;;;;;;4968896;29;20830;-90
2023/08/11 00:34:26;;;;;;;13.80;8.70;;;;;;;;;;4970265;28;20468;-90
2023/08/11 00:36:55;;;;;;;11.90;8.40;;;13.90;90.90;;;;;;4982541;28;20437;-90
2023/08/11 00:39:23;;;;;;;13.20;9.27;;;14.50;1.00;;;;;;4984112;28;20509;-91
2023/08/11 00:41:50;;;;;;;15.73;8.83;;;;;;;;;;4983247;28;20473;-91
2023/08/11 00:44:17;;;;;;;12.57;7.97;;;14.10;1.00;;;;;;4969558;29;20863;-90
2023/08/11 00:46:45;;;;;;;10.50;8.20;;;;;;;;;;4968416;29;20450;-91
2023/08/11 00:49:13;;;;;;;13.47;8.50;;;;;;;;;;4967168;29;20490;-91
2023/08/11 00:51:41;;;;;;;11.70;8.63;;;;;;;;;;4967806;29;20533;-90
2023/08/11 00:54:11;;;;;;;10.53;7.97;;;14.20;99.90;;;;;;4969834;29;20458;-90
2023/08/11 00:56:44;;;;;;;17.33;7.27;;;14.20;99.90;;;;;;4968501;29;20507;-91
2023/08/11 00:59:12;;;;;;;10.20;7.87;;;14.20;99.90;;;;;;4967321;29;20435;-91
2023/08/11 01:01:40;;;;;;;9.80;6.87;;;13.90;3.00;;;;;;4967259;29;20449;-90
2023/08/11 01:04:07;;;;;;;11.20;8.87;;;;;;;;;;4967824;29;20832;-90
2023/08/11 01:06:40;;;;;;;14.50;8.70;;;14.10;1.00;;;;;;4967090;29;20957;-90
2023/08/11 01:09:20;;;;;;;9.23;7.30;;;14.10;1.00;;;;;;4969349;29;20553;-90
2023/08/11 01:11:56;;;;;;;10.73;8.87;;;14.10;1.00;;;;;;4966746;29;20549;-89
2023/08/11 01:14:31;;;;;;;7.80;7.00;;;14.10;99.90;;;;;;4972671;29;20421;-90
2023/08/11 01:17:01;;;;;;;10.53;7.13;;;14.20;1.00;;;;;;4972326;29;20445;-90
2023/08/11 01:19:32;;;;;;;10.90;7.80;;;14.20;1.00;;;;;;4967624;29;20901;-90
2023/08/11 01:22:02;;;;;;;9.07;7.80;;;13.80;99.90;;;;;;4966986;29;21032;-91
2023/08/11 01:24:33;;;;;;;11.13;8.23;;;14.00;43.90;;;;;;4968048;29;20438;-90
2023/08/11 01:27:00;;;;;;;13.23;9.43;;;14.10;1.00;;;;;;4967604;29;20461;-90
2023/08/11 01:29:27;;;;;;;8.63;7.30;;;;;;;;;;4968598;29;20494;-90
2023/08/11 01:31:55;;;;;;;9.63;7.30;;;;;;;;;;4968491;29;20501;-89
2023/08/11 01:34:22;;;;;;;7.87;6.93;;;14.30;99.90;;;;;;4969921;28;20982;-90
2023/08/11 01:36:56;;;;;;;11.17;6.90;;;13.90;1.00;;;;;;4979492;28;20474;-90
2023/08/11 01:39:23;;;;;;;9.67;7.27;;;;;;;;;;4978733;29;20494;-91
2023/08/11 01:42:07;;;;;;;19.20;8.03;;;13.80;1.00;;;;;;4976112;29;20450;-90
2023/08/11 01:44:34;;;;;;;19.20;8.27;;;;;;;;;;4971871;28;20427;-91
2023/08/11 01:47:02;;;;;;;7.90;7.10;;;;;;;;;;4973387;29;20455;-91
2023/08/11 01:49:29;;;;;;;9.17;7.90;;;;;;;;;;4969035;29;20510;-91
2023/08/11 01:51:57;;;;;;;8.23;6.87;;;;;;;;;;4967627;29;20481;-92
2023/08/11 01:54:24;;;;;;;12.33;7.90;;;;;;;;;;4966376;29;20482;-93
2023/08/11 01:56:52;;;;;;;10.23;7.70;;;13.70;99.90;;;;;;4966667;29;20601;-92
2023/08/11 01:59:21;;;;;;;12.17;7.57;;;;;;;;;;4967315;29;20485;-91
2023/08/11 02:01:48;;;;;;;8.63;7.47;;;13.30;1.00;;;;;;4982215;28;20433;-88
2023/08/11 02:04:15;;;;;;;12.13;7.80;;;;;;;;;;4982489;28;20442;-88
2023/08/11 02:06:42;;;;;;;9.93;7.30;;;;;;;;;;4979157;28;20466;-91
2023/08/11 02:09:09;;;;;;;14.30;8.27;;;13.70;1.00;;;;;;4975959;29;20489;-90
2023/08/11 02:11:37;;;;;;;12.40;7.20;;;;;;;;;;4969349;29;20421;-90
2023/08/11 02:14:04;;;;;;;11.57;7.93;;;;;;;;;;4967117;29;20458;-90
2023/08/11 02:16:33;;;;;;;10.83;8.03;;;;;;;;;;4966355;29;20451;-90
2023/08/11 02:19:00;;;;;;;9.63;7.40;;;13.70;1.00;;;;;;4965660;29;20542;-90
2023/08/11 02:21:28;;;;;;;12.47;8.10;;;13.90;99.90;;;;;;4965175;29;20901;-89
2023/08/11 02:23:55;;;;;;;11.40;7.77;;;;;;;;;;4976408;28;20461;-89
2023/08/11 02:26:25;;;;;;;7.77;7.00;;;13.90;1.00;;;;;;4965942;29;20546;-92
2023/08/11 02:28:53;;;;;;;11.33;7.67;;;;;;;;;;4965901;29;20568;-91
2023/08/11 02:31:20;;;;;;;10.83;7.93;;;;;;;;;;4965083;29;20469;-91
2023/08/11 02:33:48;;;;;;;16.30;7.30;;;13.80;99.90;;;;;;4963177;29;20482;-91
2023/08/11 02:36:15;;;;;;;9.37;7.83;;;14.10;1.00;;;;;;4980682;28;20446;-88
2023/08/11 02:38:42;;;;;;;8.47;7.43;;;13.70;1.00;;;;;;4972778;28;20466;-90
2023/08/11 02:41:09;;;;;;;13.30;8.53;;;;;;;;;;4964719;29;20537;-91
2023/08/11 02:43:37;;;;;;;8.33;7.50;;;;;;;;;;4965488;29;20474;-90
2023/08/11 02:46:05;;;;;;;12.70;8.60;;;;;;;;;;4967165;29;20447;-90
2023/08/11 02:48:34;;;;;;;12.80;7.20;;;;;;;;;;4976999;28;20474;-91
2023/08/11 02:51:03;;;;;;;8.20;7.37;;;;;;;;;;4968119;29;20454;-91
2023/08/11 02:53:30;;;;;;;9.80;7.80;;;;;;;;;;4967487;29;20455;-91
2023/08/11 02:55:57;;;;;;;10.70;8.13;;;14.10;1.00;;;;;;4966004;28;20510;-90
2023/08/11 02:58:24;;;;;;;9.20;7.57;;;;;;;;;;4967368;29;20450;-91
2023/08/11 03:00:51;;;;;;;7.63;6.93;;;13.90;1.00;;;;;;4970678;28;20493;-89
2023/08/11 03:03:18;;;;;;;12.23;7.73;;;14.30;1.00;;;;;;4969862;29;20537;-91
2023/08/11 03:05:45;;;;;;;9.23;6.90;;;;;;;;;;4963771;29;20477;-91
2023/08/11 03:08:14;;;;;;;9.07;7.13;;;;;;;;;;4962752;29;20445;-91
2023/08/11 03:10:41;;;;;;;8.43;7.50;;;14.30;1.00;;;;;;4963126;29;20501;-91
2023/08/11 03:13:08;;;;;;;9.20;7.20;;;;;;;;;;4963241;29;20553;-90
2023/08/11 03:15:35;;;;;;;10.93;7.67;;;14.40;1.00;;;;;;4963573;29;20438;-91
2023/08/11 03:18:02;;;;;;;7.50;6.90;;;;;;;;;;4974968;28;20432;-89
2023/08/11 03:20:29;;;;;;;11.90;7.80;;;;;;;;;;4981034;28;20462;-89
2023/08/11 03:22:56;;;;;;;11.07;7.00;;;;;;;;;;4980927;28;20457;-89
2023/08/11 03:25:25;;;;;;;10.57;8.23;;;14.60;1.00;;;;;;4980770;28;20458;-89
2023/08/11 03:27:52;;;;;;;9.80;7.80;;;;;;;;;;4980783;28;20438;-88
2023/08/11 03:30:19;;;;;;;10.23;7.77;;;;;;;;;;4980755;28;20466;-88
2023/08/11 03:32:48;;;;;;;10.40;7.60;;;;;;;;;;4964135;28;20425;-88
2023/08/11 03:35:17;;;;;;;11.23;7.87;;;14.50;1.00;;;;;;4975809;28;20454;-90
2023/08/11 03:37:44;;;;;;;7.93;6.73;;;;;;;;;;4964336;29;20462;-90
2023/08/11 03:40:13;;;;;;;10.80;8.60;;;;;;;;;;4972919;28;20472;-90
2023/08/11 03:42:43;;;;;;;7.60;6.30;;;;;;;;;;4963657;29;21059;-90
2023/08/11 03:45:12;;;;;;;9.70;7.70;;;14.80;99.90;;;;;;4980165;28;20434;-88
2023/08/11 03:47:39;;;;;;;12.40;8.10;;;;;;;;;;4980312;28;20446;-88
2023/08/11 03:50:08;;;;;;;11.80;7.03;;;14.20;99.90;;;;;;4966530;29;20484;-90
2023/08/11 03:52:35;;;;;;;9.53;7.47;;;;;;;;;;4963790;29;20839;-90
2023/08/11 03:55:03;;;;;;;9.93;7.60;;;;;;;;;;4963611;29;20442;-91
2023/08/11 03:57:30;;;;;;;16.80;8.33;;;;;;;;;;4962623;29;20449;-90
2023/08/11 03:59:58;;;;;;;14.43;7.00;;;14.70;99.90;;;;;;4962136;29;20537;-90
2023/08/11 04:02:26;;;;;;;8.03;7.33;;;14.80;1.00;;;;;;4961240;29;20476;-91
2023/08/11 04:04:53;;;;;;;9.33;7.03;;;;;;;;;;4961800;29;20517;-90
2023/08/11 04:07:20;;;;;;;8.03;6.43;;;14.50;1.00;;;;;;4961900;28;20462;-90
2023/08/11 04:09:48;;;;;;;7.90;7.10;;;15.00;1.00;;;;;;4961908;29;20513;-90
2023/08/11 04:12:15;;;;;;;16.83;9.47;;;14.50;1.00;;;;;;4962748;29;20481;-90
2023/08/11 04:14:42;;;;;;;8.17;6.33;;;14.50;1.00;;;;;;4963951;29;20439;-90
2023/08/11 04:17:13;;;;;;;8.20;7.40;;;;;;;;;;4966855;29;20481;-90
2023/08/11 04:19:41;;;;;;;6.97;6.37;;;;;;;;;;4964900;29;20450;-90
2023/08/11 04:22:08;;;;;;;7.60;6.90;;;;;;;;;;4964291;29;20466;-90
2023/08/11 04:24:35;;;;;;;6.77;6.03;;;;;;;;;;4965363;29;20466;-90
2023/08/11 04:27:03;;;;;;;8.00;7.30;;;14.90;1.00;;;;;;4964461;29;20466;-91
2023/08/11 04:29:30;;;;;;;8.13;5.97;;;;;;;;;;4965095;29;20488;-91
2023/08/11 04:31:57;;;;;;;9.63;6.63;;;;;;;;;;4964092;29;20971;-91
2023/08/11 04:34:25;;;;;;;11.57;8.27;;;14.80;4.10;;;;;;4967126;28;20525;-90
2023/08/11 04:36:52;;;;;;;9.80;7.13;;;;;;;;;;4979889;28;20470;-90
2023/08/11 04:39:19;;;;;;;7.83;6.77;;;14.90;1.00;;;;;;4969319;28;20438;-92
2023/08/11 04:41:46;;;;;;;12.87;6.90;;;;;;;;;;4963048;29;20443;-92
2023/08/11 04:44:14;;;;;;;36.03;10.10;;;;;;;;;;4963434;29;20513;-91
2023/08/11 04:46:41;;;;;;;15.93;8.37;;;;;;;;;;4967108;29;20507;-92
2023/08/11 04:49:08;;;;;;;22.83;7.30;;;15.30;1.00;;;;;;4964852;29;20509;-91
2023/08/11 04:51:36;;;;;;;12.03;7.07;;;14.80;99.90;;;;;;4968727;29;20473;-90
2023/08/11 04:54:07;;;;;;;9.53;7.00;;;;;;;;;;4963613;29;20466;-91
2023/08/11 04:56:34;;;;;;;9.77;6.40;;;;;;;;;;4973607;28;20458;-91
2023/08/11 04:59:01;;;;;;;8.43;6.83;;;;;;;;;;4967559;29;20446;-90
2023/08/11 05:01:29;;;;;;;10.50;5.97;;;;;;;;;;4977931;28;20462;-89
2023/08/11 05:03:56;;;;;;;7.30;6.67;;;;;;;;;;4979593;28;20450;-89
2023/08/11 05:06:23;;;;;;;7.60;6.97;;;;;;;;;;4979429;28;20438;-91
2023/08/11 05:08:51;;;;;;;9.40;6.73;;;15.00;99.90;;;;;;4979750;28;20457;-88
2023/08/11 05:11:19;;;;;;;12.00;10.30;;;;;;;;;;4976979;28;20442;-91
2023/08/11 05:13:47;;;;;;;8.53;7.30;;;;;;;;;;4964908;29;20494;-90
2023/08/11 05:16:14;;;;;;;8.17;7.30;;;;;;;;;;4962462;29;20521;-90
2023/08/11 05:18:41;;;;;;;11.97;10.73;;;;;;;;;;4971547;28;20508;-91
2023/08/11 05:21:08;;;;;;;7.60;6.90;;;;;;;;;;4971531;29;20446;-90
2023/08/11 05:23:35;;;;;;;6.83;6.23;;;15.50;1.00;;;;;;4966037;29;20484;-91
2023/08/11 05:26:04;;;;;;;9.23;7.90;;;15.50;1.00;;;;;;4965175;29;20842;-90
2023/08/11 05:28:31;;;;;;;9.60;7.20;;;;;;;;;;4964119;29;20449;-91
2023/08/11 05:30:58;;;;;;;10.87;7.10;;;;;;;;;;4971755;28;20496;-92
2023/08/11 05:33:26;;;;;;;7.23;6.43;;;;;;;;;;4972508;28;20470;-89
2023/08/11 05:35:53;;;;;;;9.13;5.67;;;;;;;;;;4977139;28;20492;-91
2023/08/11 05:38:22;;;;;;;8.20;6.93;;;15.50;99.90;;;;;;4980694;28;20443;-90
2023/08/11 05:40:50;;;;;;;10.30;6.93;;;;;;;;;;4975975;29;20445;-91
2023/08/11 05:43:19;;;;;;;7.80;6.43;;;;;;;;;;4977189;29;20466;-91
2023/08/11 05:45:46;;;;;;;6.63;5.90;;;16.00;1.00;;;;;;4971304;29;20517;-91
2023/08/11 05:48:13;;;;;;;7.10;6.40;;;;;;;;;;4970932;29;20455;-91
2023/08/11 05:50:40;;;;;;;5.90;4.93;;;;;;;;;;4969452;29;20486;-91
2023/08/11 05:53:07;;;;;;;6.50;5.90;;;;;;;;;;4966851;29;20990;-90
2023/08/11 05:55:35;;;;;;;7.17;5.73;;;15.70;1.00;;;;;;4965376;29;20478;-91
2023/08/11 05:58:02;;;;;;;12.73;5.90;;;16.00;1.00;;;;;;4964544;29;20485;-91
2023/08/11 06:00:30;;;;;;;8.40;6.13;;;;;;;;;;4964407;29;20446;-91
2023/08/11 06:02:57;;;;;;;8.40;5.83;;;15.90;1.00;;;;;;4963844;29;20479;-90
2023/08/11 06:05:24;;;;;;;6.23;4.87;;;;;;;;;;4974727;28;20441;-89
2023/08/11 06:07:52;;;;;;;9.30;5.20;;;;;;;;;;4981929;28;20446;-90
2023/08/11 06:10:19;;;;;;;6.83;5.27;;;16.40;1.00;;;;;;4980434;28;20475;-90
2023/08/11 06:12:46;;;;;;;6.70;5.47;;;;;;;;;;4974015;29;20535;-90
2023/08/11 06:15:13;;;;;;;8.10;5.87;;;16.10;99.90;;;;;;4971057;29;20508;-91
2023/08/11 06:17:43;;;;;;;7.40;6.10;;;16.30;99.90;;;;;;4969757;29;21054;-92
2023/08/11 06:20:12;;;;;;;7.97;7.00;;;;;;;;;;4969260;29;20447;-92
2023/08/11 06:22:40;;;;;;;12.27;7.00;;;;;;;;;;4975588;29;20476;-92
2023/08/11 06:25:07;;;;;;;8.80;6.40;;;;;;;;;;4966470;29;20448;-91
2023/08/11 06:27:34;;;;;;;6.23;5.73;;;16.60;1.00;;;;;;4966635;29;20497;-91
2023/08/11 06:30:04;;;;;;;9.30;6.03;;;;;;;;;;4966121;29;20543;-91
2023/08/11 06:32:31;;;;;;;9.73;6.83;;;;;;;;;;4965941;28;20489;-91
2023/08/11 06:34:59;;;;;;;7.20;5.30;;;16.80;24.70;;;;;;4969076;28;20487;-91
2023/08/11 06:37:27;;;;;;;5.70;5.13;;;;;;;;;;4981284;28;20438;-89
2023/08/11 06:39:58;;;;;;;7.57;5.90;;;;;;;;;;4979896;28;20430;-91
2023/08/11 06:42:26;;;;;;;8.93;6.30;;;17.20;1.00;;;;;;4970776;29;20493;-91
2023/08/11 06:44:54;;;;;;;9.27;5.77;;;;;;;;;;4969813;28;20478;-91
2023/08/11 06:47:21;;;;;;;7.70;6.33;;;;;;;;;;4967458;29;20805;-91
2023/08/11 06:49:49;;;;;;;8.97;5.77;;;;;;;;;;4969220;29;20466;-91
2023/08/11 06:52:17;;;;;;;10.50;6.00;;;17.40;1.00;;;;;;4981119;28;20562;-91
2023/08/11 06:54:44;;;;;;;10.33;5.13;;;;;;;;;;4979891;28;20464;-91
2023/08/11 06:57:12;;;;;;;4.60;4.20;;;;;;;;;;4972599;29;20450;-91
2023/08/11 06:59:39;;;;;;;4.43;4.03;;;;;;;;;;4970890;29;20973;-92
2023/08/11 07:02:07;;;;;;;5.67;5.10;;;17.70;1.00;;;;;;4966531;29;20481;-92
2023/08/11 07:04:34;;;;;;;13.37;6.20;;;;;;;;;;4966961;29;20537;-91
2023/08/11 07:07:01;;;;;;;6.80;6.00;;;17.90;1.00;;;;;;4966763;29;20450;-92
2023/08/11 07:09:30;;;;;;;5.97;5.20;;;;;;;;;;4971484;28;20437;-91
2023/08/11 07:11:57;;;;;;;6.00;4.80;;;;;;;;;;4980806;28;20457;-89
2023/08/11 07:14:24;;;;;;;5.83;5.23;;;;;;;;;;4980775;28;20522;-90
2023/08/11 07:16:52;;;;;;;4.00;3.60;;;;;;;;;;4980618;28;20440;-90
2023/08/11 07:19:20;;;;;;;5.90;4.50;;;;;;;;;;4980907;28;20422;-91
2023/08/11 07:21:47;;;;;;;10.03;4.70;;;18.40;1.00;;;;;;4980800;28;20425;-91
2023/08/11 07:24:15;;;;;;;6.23;4.27;;;;;;;;;;4980554;28;20442;-90
2023/08/11 07:26:44;;;;;;;4.70;4.30;;;;;;;;;;4978841;28;20437;-89
2023/08/11 07:29:11;;;;;;;4.93;4.30;;;;;;;;;;4968918;29;20450;-91
2023/08/11 07:31:41;;;;;;;3.30;3.10;;;;;;;;;;4971904;29;20482;-90
2023/08/11 07:34:08;;;;;;;6.07;3.90;;;;;;;;;;4965209;28;20529;-92
2023/08/11 07:36:36;;;;;;;4.30;4.00;;;;;;;;;;4965068;29;20537;-91
2023/08/11 07:39:03;;;;;;;4.00;3.60;;;;;;;;;;4963456;29;20446;-91
2023/08/11 07:41:31;;;;;;;6.33;4.10;;;;;;;;;;4964055;29;20430;-91
2023/08/11 07:44:00;;;;;;;4.63;4.20;;;;;;;;;;4963646;28;20586;-91
2023/08/11 07:46:28;;;;;;;4.47;3.40;;;;;;;;;;4965660;29;20467;-92
2023/08/11 07:48:55;;;;;;;5.43;3.90;;;;;;;;;;4979897;28;20446;-91
2023/08/11 07:51:22;;;;;;;3.60;3.30;;;;;;;;;;4978025;28;20500;-91
2023/08/11 07:53:51;;;;;;;4.07;3.30;;;;;;;;;;4972125;29;20481;-90
2023/08/11 07:56:19;;;;;;;6.50;4.10;;;;;;;;;;4966612;29;20445;-91
2023/08/11 07:58:48;;;;;;;14.07;4.40;;;;;;;;;;4965495;29;20450;-92
2023/08/11 08:01:17;;;;;;;7.63;4.07;;;;;;;;;;4972495;28;20427;-89
2023/08/11 08:03:44;;;;;;;3.37;3.07;;;;;;;;;;4980204;28;20503;-89
2023/08/11 08:06:11;;;;;;;3.90;3.13;;;18.70;99.90;;;;;;4979665;28;20454;-89
2023/08/11 08:08:39;;;;;;;3.90;3.10;;;;;;;;;;4979277;28;20469;-91
2023/08/11 08:11:07;;;;;;;3.90;2.90;;;;;;;;;;4975893;28;20486;-92
2023/08/11 08:13:36;;;;;;;3.73;3.30;;;;;;;;;;4965555;29;20478;-92
2023/08/11 08:16:03;;;;;;;2.10;2.00;;;;;;;;;;4964480;29;20454;-91
2023/08/11 08:18:32;;;;;;;6.93;6.17;;;;;;;;;;4964706;29;20457;-92
2023/08/11 08:20:59;;;;;;;10.33;4.00;;;;;;;;;;4963447;29;20446;-91
2023/08/11 08:23:26;;;;;;;6.00;3.43;;;;;;;;;;4963115;29;20880;-92
2023/08/11 08:25:54;;;;;;;3.63;3.10;;;;;;;;;;4963942;29;21006;-92
2023/08/11 08:28:21;;;;;;;4.70;4.27;;;;;;;;;;4963170;29;20458;-92
2023/08/11 08:30:50;;;;;;;2.87;2.67;;;;;;;;;;4962573;29;20513;-92
2023/08/11 08:33:17;;;;;;;2.70;2.30;;;;;;;;;;4962862;29;20477;-92
2023/08/11 08:35:46;;;;;;;8.50;4.40;;;;;;;;;;4968698;28;20513;-91
2023/08/11 08:38:14;;;;;;;5.93;2.57;;;;;;;;;;4976383;28;20454;-91
2023/08/11 08:40:41;;;;;;;3.67;2.43;;;;;;;;;;4979223;28;20445;-91
2023/08/11 08:43:09;;;;;;;5.60;1.87;;;;;;;;;;4967319;29;20506;-90
2023/08/11 08:45:44;;;;;;;3.93;1.93;;;19.80;1.00;;;;;;4968336;29;20541;-90
2023/08/11 08:48:17;;;;;;;8.93;3.20;;;19.90;1.00;;;;;;4964257;29;20441;-88
2023/08/11 08:50:46;;;;;;;2.70;2.50;;;;;;;;;;4962099;29;20834;-88
2023/08/11 08:53:14;;;;;;;2.60;2.30;;;;;;;;;;4962368;29;20533;-88
2023/08/11 08:55:42;;;;;;;2.97;2.03;;;20.20;1.00;;;;;;4964609;28;20450;-88
2023/08/11 08:58:33;;;;;;;3.00;1.73;;;;;;;;;;4966163;29;20454;-89
2023/08/11 09:01:28;;;;;;;5.57;2.80;;;;;;;;;;4965656;29;20517;-88
2023/08/11 09:09:20;;;;;;;5.47;2.70;;;20.60;1.00;;;;;;4971581;29;20458;-90
2023/08/11 09:11:49;;;;;;;12.07;4.00;;;20.50;99.90;;;;;;4982829;28;20500;-90
2023/08/11 09:14:17;;;;;;;2.73;2.30;;;20.70;99.90;;;;;;4981613;28;20465;-89
2023/08/11 09:16:44;;;;;;;6.90;2.33;;;20.80;99.90;;;;;;4982708;28;20462;-89
2023/08/11 09:19:15;;;;;;;6.20;2.33;;;21.10;99.90;;;;;;4975524;28;20485;-89
2023/08/11 09:21:44;;;;;;;1.80;1.70;;;20.70;1.00;;;;;;4977846;23;20501;-85
2023/08/11 09:24:11;;;;;;;2.83;2.33;;;21.10;99.90;;;;;;4966518;29;20441;-86
2023/08/11 09:26:43;;;;;;;4.93;2.20;;;20.60;99.90;;;;;;4965851;29;20455;-85
2023/08/11 09:29:14;;;;;;;4.53;2.80;;;;;;;;;;4967681;29;20433;-86
2023/08/11 09:31:42;;;;;;;5.03;2.00;;;;;;;;;;4967272;29;20535;-87
2023/08/11 09:34:13;;;;;;;3.67;1.90;;;20.80;99.90;;;;;;4967643;29;20454;-86
2023/08/11 09:36:42;;;;;;;2.37;1.70;;;21.00;1.00;;;;;;4975157;29;20495;-85
2023/08/11 09:39:10;;;;;;;2.10;1.90;;;;;;;;;;4981881;28;20476;-87
2023/08/11 09:41:45;;;;;;;4.47;2.27;;;21.10;1.00;;;;;;4980608;29;21049;-85
2023/08/11 09:44:17;;;;;;;4.53;1.73;;;20.60;99.90;;;;;;4970107;29;20434;-85
2023/08/11 09:46:44;;;;;;;2.40;2.17;;;;;;;;;;4975605;29;20438;-85
2023/08/11 09:49:11;;;;;;;2.73;1.90;;;21.20;1.00;;;;;;4979449;29;20465;-84
2023/08/11 09:51:39;;;;;;;2.33;2.10;;;;;;;;;;4980275;29;20481;-85
2023/08/11 09:54:08;;;;;;;2.03;1.60;;;21.80;99.90;;;;;;4971458;29;20459;-85
2023/08/11 09:56:36;;;;;;;2.03;1.70;;;21.50;1.00;;;;;;4970304;29;20450;-85
2023/08/11 09:59:07;;;;;;;2.80;1.73;;;21.50;99.90;;;;;;4976611;28;20430;-83
2023/08/11 10:01:36;;;;;;;3.33;2.00;;;21.90;99.90;;;;;;4982124;28;20496;-82
2023/08/11 10:04:10;;;;;;;4.30;1.73;;;21.90;99.90;;;;;;4980966;28;20442;-86
2023/08/11 10:06:39;;;;;;;2.27;1.73;;;21.50;1.00;;;;;;4966312;28;20437;-85
2023/08/11 10:09:09;;;;;;;2.73;1.40;;;21.20;99.90;;;;;;4964553;29;20540;-85
2023/08/11 10:11:37;;;;;;;3.37;1.70;;;21.70;99.90;;;;;;4964871;29;20577;-86
2023/08/11 10:14:06;;;;;;;6.97;2.30;;;21.60;1.00;;;;;;4966097;29;20454;-87
2023/08/11 10:16:33;;;;;;;3.47;1.67;;;22.00;99.90;;;;;;4965754;29;20492;-86
2023/08/11 10:19:01;;;;;;;5.23;2.23;;;21.60;1.00;;;;;;4964825;29;20500;-86
2023/08/11 10:21:28;;;;;;;2.20;2.00;;;21.60;1.00;;;;;;4965818;28;20482;-86
2023/08/11 10:23:56;;;;;;;3.13;2.50;;;;;;;;;;4965143;29;20481;-87
2023/08/11 10:26:24;;;;;;;2.40;2.20;;;22.10;99.90;;;;;;4960952;29;20458;-88
2023/08/11 10:29:05;;;;;;;4.10;2.03;;;21.90;1.00;;;;;;4960975;29;20454;-87
2023/08/11 10:31:34;;;;;;;1.70;1.60;;;;;;;;;;4971889;28;20475;-90
2023/08/11 10:36:58;;;;;;;2.00;1.80;;;21.90;1.00;;;;;;4965140;29;20458;-87
2023/08/11 10:39:25;;;;;;;2.67;2.07;;;;;;;;;;4966221;29;20549;-87
2023/08/11 10:41:53;;;;;;;2.13;1.93;;;;;;;;;;4965703;29;21059;-88
2023/08/11 10:44:21;;;;;;;2.13;1.90;;;21.90;1.00;;;;;;4964920;29;20449;-88
2023/08/11 10:46:50;;;;;;;1.67;1.57;;;22.20;99.90;;;;;;4967712;29;20438;-87
2023/08/11 10:49:32;;;;;;;2.37;1.73;;;21.90;1.00;;;;;;4966825;29;20450;-88
2023/08/11 10:52:00;;;;;;;1.90;1.80;;;22.00;1.00;;;;;;4967494;29;20542;-88
2023/08/11 10:54:32;;;;;;;5.20;1.80;;;;;;;;;;4973468;29;20458;-90
2023/08/11 10:57:01;;;;;;;1.90;1.70;;;;;;;;;;4973415;29;20529;-90
2023/08/11 10:59:30;;;;;;;1.73;1.43;;;21.80;1.00;;;;;;4967316;29;20458;-91
2023/08/11 11:02:00;;;;;;;1.87;1.37;;;;;;;;;;4963957;29;20904;-88
2023/08/11 11:04:36;;;;;;;4.10;1.90;;;21.30;1.00;;;;;;4962828;29;20454;-89
2023/08/11 11:07:06;;;;;;;1.87;1.67;;;21.80;1.00;;;;;;4962783;29;20485;-87
2023/08/11 11:09:36;;;;;;;2.27;1.70;;;21.80;99.90;;;;;;4962367;29;20512;-88
2023/08/11 11:12:03;;;;;;;2.00;1.80;;;;;;;;;;4961993;29;20492;-88
2023/08/11 11:14:32;;;;;;;2.90;1.80;;;;;;;;;;4961411;29;20461;-87
2023/08/11 11:17:15;;;;;;;3.00;1.90;;;22.10;1.00;;;;;;4964178;28;20480;-88
2023/08/11 11:19:43;;;;;;;2.30;1.93;;;;;;;;;;4961830;29;20461;-87
2023/08/11 11:22:09;;;;;;;1.27;1.17;;;22.60;99.90;;;;;;4962354;28;20541;-88
2023/08/11 11:24:38;;;;;;;1.80;1.70;;;22.30;1.00;;;;;;4963289;29;20453;-87
2023/08/11 11:27:05;;;;;;;1.67;1.57;;;23.30;1.00;;;;;;4962952;29;21014;-87
2023/08/11 11:29:32;;;;;;;1.70;1.60;;;;;;;;;;4960896;29;20502;-87
2023/08/11 11:32:06;;;;;;;3.13;2.03;;;;;;;;;;4968103;29;20492;-87
2023/08/11 11:34:39;;;;;;;1.77;1.67;;;22.30;1.00;;;;;;4971068;29;20807;-88
2023/08/11 11:37:06;;;;;;;4.77;2.27;;;;;;;;;;4977801;28;20423;-87
2023/08/11 11:39:34;;;;;;;2.00;1.80;;;22.30;1.00;;;;;;4974532;28;20473;-88
2023/08/11 11:42:09;;;;;;;2.57;1.73;;;22.30;1.00;;;;;;4971234;29;20450;-86
2023/08/11 11:44:37;;;;;;;4.40;2.00;;;22.40;1.00;;;;;;4965680;29;20497;-87
2023/08/11 11:47:05;;;;;;;1.87;1.70;;;22.40;1.00;;;;;;4961678;29;20446;-88
2023/08/11 11:49:32;;;;;;;4.83;1.80;;;;;;;;;;4961166;29;20454;-87
2023/08/11 11:52:01;;;;;;;3.00;2.10;;;22.20;98.70;;;;;;4962122;29;20513;-87
2023/08/11 11:54:29;;;;;;;4.10;1.47;;;;;;;;;;4968450;29;20982;-86
2023/08/11 11:56:56;;;;;;;2.00;1.80;;;;;;;;;;4966007;29;20438;-87
2023/08/11 11:59:24;;;;;;;2.13;1.60;;;;;;;;;;4972358;29;20462;-87
2023/08/11 12:01:52;;;;;;;2.27;1.80;;;;;;;;;;4967815;29;20497;-87
2023/08/11 12:04:19;;;;;;;2.00;1.80;;;;;;;;;;4968499;29;20886;-87
2023/08/11 12:06:48;;;;;;;4.40;2.20;;;22.70;1.00;;;;;;4968803;29;20451;-87
2023/08/11 12:09:17;;;;;;;5.23;1.57;;;22.70;1.00;;;;;;4966241;29;20518;-86
2023/08/11 12:11:44;;;;;;;2.33;1.80;;;22.20;96.60;;;;;;4965290;29;20557;-87
2023/08/11 12:14:17;;;;;;;1.77;1.67;;;22.80;1.00;;;;;;4965848;29;20466;-89
2023/08/11 12:16:44;;;;;;;3.10;2.00;;;;;;;;;;4972586;28;20415;-85
2023/08/11 12:19:11;;;;;;;3.60;1.70;;;22.50;99.90;;;;;;4979914;28;20445;-86
2023/08/11 12:21:38;;;;;;;4.40;2.57;;;;;;;;;;4979640;28;20497;-88
2023/08/11 12:24:09;;;;;;;2.37;2.00;;;;;;;;;;4979639;28;20490;-87
2023/08/11 12:26:43;;;;;;;4.77;2.53;;;;;;;;;;4979844;28;20458;-87
2023/08/11 12:29:13;;;;;;;2.70;1.90;;;;;;;;;;4981109;28;20422;-87
2023/08/11 12:31:57;;;;;;;2.30;2.00;;;;;;;;;;4983603;28;20501;-88
2023/08/11 12:34:30;;;;;;;1.77;1.53;;;;;;;;;;4983847;28;20449;-86
2023/08/11 12:39:39;;;;;;;2.90;1.83;;;;;;;;;;4957772;29;20520;-88
2023/08/11 12:42:24;;;;;;;2.83;2.13;;;;;;;;;;4966448;29;20442;-89
2023/08/11 12:45:03;;;;;;;2.47;1.90;;;;;;;;;;4964603;29;20489;-89
2023/08/11 12:47:34;;;;;;;3.43;2.10;;;;;;;;;;4965487;29;20434;-89
2023/08/11 12:50:05;;;;;;;2.43;1.93;;;;;;;;;;4966320;29;20474;-89
2023/08/11 12:52:43;;;;;;;2.03;1.83;;;;;;;;;;4972703;29;20498;-89
2023/08/11 12:55:19;;;;;;;1.53;1.43;;;;;;;;;;4977521;29;20411;-88
2023/08/11 12:57:48;;;;;;;3.27;2.03;;;;;;;;;;4977485;29;20573;-88
2023/08/11 13:00:26;;;;;;;1.60;1.50;;;;;;;;;;4978823;29;20465;-89
2023/08/11 13:02:58;;;;;;;1.97;1.80;;;;;;;;;;4979478;29;20460;-90
2023/08/11 13:05:28;;;;;;;1.83;1.50;;;;;;;;;;4979335;29;20403;-89
2023/08/11 13:08:17;;;;;;;2.00;1.63;;;23.20;1.00;;;;;;4976145;29;20441;-89
2023/08/11 13:10:50;;;;;;;2.87;1.60;;;;;;;;;;4969844;29;20454;-89
2023/08/11 13:13:31;;;;;;;2.70;1.60;;;;;;;;;;4974290;29;20481;-88
2023/08/11 13:15:59;;;;;;;1.93;1.83;;;;;;;;;;4967541;29;20442;-88
2023/08/11 13:50:48;;;;;;;;;;;;;;;;;;;;;
2023/08/11 13:56:18;;;;;;;2.03;1.93;;;;;;;;;;4897217;29;20965;-90
2023/08/11 13:58:46;;;;;;;2.20;1.60;;;;;;;;;;4964054;29;20454;-89
2023/08/11 14:01:17;;;;;;;2.00;1.90;;;;;;;;;;4967650;29;20474;-90
2023/08/11 14:04:01;;;;;;;4.60;2.20;;;;;;;;;;4969409;29;20463;-92
2023/08/11 14:06:57;;;;;;;4.40;2.67;;;;;;;;;;4968755;29;20504;-90
2023/08/11 14:15:08;;;;;;;3.43;2.57;;;;;;;;;;4968474;29;20444;-91
2023/08/11 14:17:41;;;;;;;1.93;1.60;;;;;;;;;;4971039;29;20450;-90
2023/08/11 14:28:38;;;;;;;6.40;5.80;;;;;;;;;;5759218;23;20867;-88
2023/08/11 14:31:05;;;;;;;3.83;3.50;;;;;;;;;;4966500;29;20537;-88
2023/08/11 14:33:34;;;;;;;3.03;2.83;;;23.30;1.00;;;;;;4968699;29;20478;-88
2023/08/11 14:36:02;;;;;;;3.43;2.40;;;;;;;;;;4969571;29;20454;-88
2023/08/11 14:38:32;;;;;;;2.53;2.33;;;23.50;1.00;;;;;;4967891;29;20947;-88
2023/08/11 14:40:59;;;;;;;1.77;1.67;;;;;;;;;;4976312;28;20457;-87
2023/08/11 14:43:30;;;;;;;6.73;1.70;;;;;;;;;;4981096;29;20443;-87
2023/08/11 14:46:00;;;;;;;3.47;2.60;;;;;;;;;;4977860;28;20430;-88
2023/08/11 14:48:27;;;;;;;4.73;3.27;;;;;;;;;;4971921;28;20454;-84
2023/08/11 14:50:54;;;;;;;2.17;2.03;;;;;;;;;;4981256;28;20458;-85
2023/08/11 14:53:30;;;;;;;2.37;2.17;;;23.70;1.00;;;;;;4981185;28;20458;-83
2023/08/11 14:55:57;;;;;;;2.93;2.40;;;;;;;;;;4981223;28;20435;-83
2023/08/11 14:58:24;;;;;;;2.37;2.27;;;;;;;;;;4975230;28;20457;-86
2023/08/11 15:00:51;;;;;;;3.93;2.23;;;;;;;;;;4968292;29;20995;-86
2023/08/11 15:03:20;;;;;;;1.87;1.77;;;;;;;;;;4966630;29;20453;-86
2023/08/11 15:05:47;;;;;;;3.00;2.33;;;;;;;;;;4972263;28;20510;-84